Time;durP1;ratioP1;P1;durP2;ratioP2;P2;SDS_P1;SDS_P2;PMS_P1;PMS_P2;Temp;Humidity;BMP_temperature;BMP_pressure;BME280_temperature;BME280_humidity;BME280_pressure;Samples;Min_cycle;Max_cycle;Signal;HPM_P1;HPM_P2
2022/03/27 00:02:20;;;;;;;19.37;9.87;;;;;;;;;;6161387;28;20254;-73
2022/03/27 00:05:41;;;;;;;17.90;8.13;;;;;;;;;;6167749;28;20226;-74
2022/03/27 00:09:03;;;;;;;17.07;8.00;;;;;;;;;;6163636;28;20235;-74
2022/03/27 00:12:24;;;;;;;11.30;7.17;;;;;;;;;;6159531;28;20238;-74
2022/03/27 00:15:46;;;;;;;11.43;7.13;;;;;;;;;;6153291;28;20581;-73
2022/03/27 00:19:07;;;;;;;17.57;10.63;;;;;;;;;;6169673;28;20253;-73
2022/03/27 00:22:28;;;;;;;16.77;8.90;;;;;;;;;;6167666;28;21136;-73
2022/03/27 00:25:51;;;;;;;17.13;8.07;;;;;;;;;;6166339;28;20223;-74
2022/03/27 00:29:15;;;;;;;14.20;7.50;;;;;;;;;;6159227;28;20223;-74
2022/03/27 00:32:35;;;;;;;18.47;9.10;;;;;;;;;;6143749;28;20309;-73
2022/03/27 00:35:57;;;;;;;13.03;7.60;;;;;;;;;;6165315;28;20802;-73
2022/03/27 00:39:17;;;;;;;17.87;8.03;;;;;;;;;;6169094;28;20233;-73
2022/03/27 00:42:39;;;;;;;18.60;9.40;;;;;;;;;;6172923;28;20223;-73
2022/03/27 00:46:00;;;;;;;14.37;8.53;;;;;;;;;;6166008;28;20230;-72
2022/03/27 00:49:21;;;;;;;15.60;8.37;;;;;;;;;;6158338;28;20238;-74
2022/03/27 00:52:42;;;;;;;19.37;8.50;;;;;;;;;;6159423;28;20830;-73
2022/03/27 00:56:03;;;;;;;15.50;8.50;;;;;;;;;;6161369;28;20309;-73
2022/03/27 00:59:25;;;;;;;17.47;8.47;;;;;;;;;;6164265;28;20223;-74
2022/03/27 01:02:46;;;;;;;20.87;8.10;;;;;;;;;;6166630;28;20230;-73
2022/03/27 01:06:24;;;;;;;19.00;8.30;;;;;;;;;;6164602;28;20223;-73
2022/03/27 01:57:42;;;;;;;23.27;9.23;;;;;;;;;;6151203;28;20608;-73
2022/03/27 02:01:05;;;;;;;15.50;9.10;;;;;;;;;;6145110;28;20254;-72
2022/03/27 02:04:25;;;;;;;15.27;7.80;;;;;;;;;;6153245;28;20253;-73
2022/03/27 02:07:46;;;;;;;26.43;11.30;;;;;;;;;;6160564;28;20628;-73
2022/03/27 02:11:08;;;;;;;15.20;8.77;;;;;;;;;;6165004;28;20238;-73
2022/03/27 02:14:29;;;;;;;21.53;9.20;;;;;;;;;;6163523;28;20323;-73
2022/03/27 02:17:52;;;;;;;21.73;9.97;;;;;;;;;;6159719;28;20692;-74
2022/03/27 02:21:14;;;;;;;16.87;9.17;;;;;;;;;;6160952;28;20231;-74
2022/03/27 02:24:35;;;;;;;17.27;8.97;;;;;;;;;;6159796;28;20234;-73
2022/03/27 02:27:55;;;;;;;24.37;10.17;;;;;;;;;;6161645;28;20230;-73
2022/03/27 02:31:17;;;;;;;18.40;9.43;;;;;;;;;;6149315;28;20720;-73
2022/03/27 02:34:39;;;;;;;24.73;9.03;;;;;;;;;;6162550;28;20230;-73
2022/03/27 02:38:00;;;;;;;21.73;10.53;;;;;;;;;;6159791;28;20231;-74
2022/03/27 02:41:20;;;;;;;24.53;10.40;;;;;;;;;;6171614;28;20260;-73
2022/03/27 02:44:41;;;;;;;17.43;10.97;;;;;;;;;;6158494;28;20529;-73
2022/03/27 02:48:03;;;;;;;21.33;10.37;;;;;;;;;;6159979;28;21001;-74
2022/03/27 02:51:25;;;;;;;22.37;10.13;;;;;;;;;;6161104;28;20237;-73
2022/03/27 02:54:46;;;;;;;16.47;8.67;;;;;;;;;;6160713;28;20230;-73
2022/03/27 02:58:07;;;;;;;19.30;10.90;;;;;;;;;;6156183;28;20971;-73
2022/03/27 03:01:27;;;;;;;16.70;10.00;;;;;;;;;;6161650;28;20690;-74
2022/03/27 03:04:51;;;;;;;21.67;11.37;;;;;;;;;;6159160;28;20227;-74
2022/03/27 03:08:13;;;;;;;25.43;12.10;;;;;;;;;;6153450;28;20235;-74
2022/03/27 03:11:34;;;;;;;20.33;11.67;;;;;;;;;;6118670;28;20247;-73
2022/03/27 03:14:56;;;;;;;17.33;11.30;;;;;;;;;;6157896;28;20230;-72
2022/03/27 03:18:17;;;;;;;21.30;11.17;;;;;;;;;;6159075;28;20227;-73
2022/03/27 03:21:38;;;;;;;18.40;10.20;;;;;;;;;;6163056;28;20226;-73
2022/03/27 03:25:00;;;;;;;21.90;11.27;;;;;;;;;;6165085;28;20242;-73
2022/03/27 03:28:21;;;;;;;22.03;11.50;;;;;;;;;;6147136;28;20243;-75
2022/03/27 03:31:41;;;;;;;24.90;11.93;;;;;;;;;;6146664;28;20393;-73
2022/03/27 03:35:02;;;;;;;18.73;12.53;;;;;;;;;;6171807;28;20235;-74
2022/03/27 03:38:23;;;;;;;22.30;12.87;;;;;;;;;;6161854;28;21068;-73
2022/03/27 03:41:46;;;;;;;22.27;11.87;;;;;;;;;;6168688;28;20231;-73
2022/03/27 03:45:07;;;;;;;29.93;14.60;;;;;;;;;;6169427;28;20574;-73
2022/03/27 03:48:28;;;;;;;22.17;12.37;;;;;;;;;;6158146;28;20239;-74
2022/03/27 03:51:49;;;;;;;17.90;11.80;;;;;;;;;;6164307;28;20486;-73
2022/03/27 03:55:10;;;;;;;14.20;11.00;;;;;;;;;;6163545;28;20222;-73
2022/03/27 03:58:32;;;;;;;17.83;10.97;;;;;;;;;;6155519;28;20250;-74
2022/03/27 04:01:53;;;;;;;21.00;13.63;;;;;;;;;;6164906;28;20230;-74
2022/03/27 04:05:14;;;;;;;25.10;13.67;;;;;;;;;;6170377;28;20239;-73
2022/03/27 04:08:36;;;;;;;18.83;12.67;;;;;;;;;;6163837;28;20317;-73
2022/03/27 04:11:57;;;;;;;23.73;15.00;;;;;;;;;;6162689;28;20265;-73
2022/03/27 04:15:19;;;;;;;21.83;14.13;;;;;;;;;;6166145;28;20222;-73
2022/03/27 04:18:41;;;;;;;23.33;13.17;;;;;;;;;;6157841;28;20230;-72
2022/03/27 04:22:01;;;;;;;20.50;14.07;;;;;;;;;;6168773;28;20227;-74
2022/03/27 04:25:22;;;;;;;22.07;15.80;;;;;;;;;;6161314;28;20531;-73
2022/03/27 04:28:43;;;;;;;21.23;15.53;;;;;;;;;;6149973;28;20322;-73
2022/03/27 04:32:06;;;;;;;26.93;17.60;;;;;;;;;;6158940;28;20254;-74
2022/03/27 04:35:27;;;;;;;22.73;17.83;;;;;;;;;;6162403;28;20234;-73
2022/03/27 04:38:48;;;;;;;22.67;16.07;;;;;;;;;;6158187;28;20559;-73
2022/03/27 04:42:10;;;;;;;25.43;15.73;;;;;;;;;;6164308;28;20235;-73
2022/03/27 04:45:31;;;;;;;28.33;17.47;;;;;;;;;;6171017;28;20330;-73
2022/03/27 04:48:53;;;;;;;28.37;17.03;;;;;;;;;;6158370;28;20223;-73
2022/03/27 04:52:17;;;;;;;47.57;18.57;;;;;;;;;;6159597;28;20238;-73
2022/03/27 04:55:37;;;;;;;45.23;19.73;;;;;;;;;;6149577;28;20227;-73
2022/03/27 04:58:58;;;;;;;25.07;15.83;;;;;;;;;;6162341;28;20526;-73
2022/03/27 05:02:19;;;;;;;25.57;16.30;;;;;;;;;;6167991;28;20243;-73
2022/03/27 05:05:41;;;;;;;21.80;15.20;;;;;;;;;;6162448;28;20231;-72
2022/03/27 05:09:02;;;;;;;29.50;17.23;;;;;;;;;;6160271;28;20234;-73
2022/03/27 05:12:24;;;;;;;19.43;13.57;;;;;;;;;;6175092;28;20258;-74
2022/03/27 05:15:46;;;;;;;61.03;17.70;;;;;;;;;;6157082;28;20226;-73
2022/03/27 05:19:07;;;;;;;25.23;15.33;;;;;;;;;;6150669;28;20228;-74
2022/03/27 05:22:31;;;;;;;21.33;16.70;;;;;;;;;;6167438;28;20574;-73
2022/03/27 05:25:52;;;;;;;20.03;14.73;;;;;;;;;;6166133;28;20238;-73
2022/03/27 05:29:13;;;;;;;17.33;14.33;;;;;;;;;;6152182;28;20332;-74
2022/03/27 05:32:34;;;;;;;16.00;13.10;;;;;;;;;;6167365;28;20238;-72
2022/03/27 05:35:55;;;;;;;15.47;13.30;;;;;;;;;;6162956;28;20485;-72
2022/03/27 05:39:18;;;;;;;18.10;15.40;;;;;;;;;;6162436;28;20231;-73
2022/03/27 05:42:39;;;;;;;19.67;12.97;;;;;;;;;;6150301;28;20230;-73
2022/03/27 05:46:00;;;;;;;14.47;12.97;;;;;;;;;;6156596;28;20238;-72
2022/03/27 05:49:21;;;;;;;14.70;12.57;;;;;;;;;;6175229;28;20651;-72
2022/03/27 05:52:43;;;;;;;20.03;12.30;;;;;;;;;;6174678;28;20573;-73
2022/03/27 05:56:05;;;;;;;15.87;12.40;;;;;;;;;;6152213;28;20306;-73
2022/03/27 05:59:26;;;;;;;18.00;12.90;;;;;;;;;;6144669;28;20485;-72
2022/03/27 06:02:48;;;;;;;19.03;13.33;;;;;;;;;;6159207;28;20230;-73
2022/03/27 06:06:09;;;;;;;20.93;14.23;;;;;;;;;;6153153;28;20227;-72
2022/03/27 06:09:30;;;;;;;19.67;12.57;;;;;;;;;;6140558;28;20829;-73
2022/03/27 06:12:52;;;;;;;18.73;13.17;;;;;;;;;;6160106;28;20249;-73
2022/03/27 06:16:13;;;;;;;18.87;14.33;;;;;;;;;;6161701;28;20321;-73
2022/03/27 06:19:34;;;;;;;27.00;17.07;;;;;;;;;;6157446;28;20255;-73
2022/03/27 06:22:56;;;;;;;16.73;14.03;;;;;;;;;;6160918;28;20238;-74
2022/03/27 06:26:17;;;;;;;22.37;14.63;;;;;;;;;;6172722;28;20222;-73
2022/03/27 06:29:39;;;;;;;17.87;15.83;;;;;;;;;;6164637;28;20578;-73
2022/03/27 06:33:01;;;;;;;24.20;15.27;;;;;;;;;;6151816;28;20306;-73
2022/03/27 06:36:23;;;;;;;20.60;15.87;;;;;;;;;;6148394;28;21201;-73
2022/03/27 06:39:43;;;;;;;20.30;14.17;;;;;;;;;;6147006;28;20235;-73
2022/03/27 06:43:05;;;;;;;18.30;12.57;;;;;;;;;;6151724;28;20217;-73
2022/03/27 06:46:27;;;;;;;15.20;11.00;;;;;;;;;;6158196;28;20246;-73
2022/03/27 06:49:50;;;;;;;18.57;10.37;;;;;;;;;;6153540;28;20230;-74
2022/03/27 06:53:11;;;;;;;17.73;11.77;;;;;;;;;;6152576;28;20245;-73
2022/03/27 06:56:33;;;;;;;17.87;11.93;;;;;;;;;;6148654;28;20231;-74
2022/03/27 07:03:39;;;;;;;18.53;12.33;;;;;;;;;;6104512;28;20609;-73
2022/03/27 07:07:00;;;;;;;18.53;11.57;;;;;;;;;;6149128;28;20265;-74
2022/03/27 07:10:21;;;;;;;17.67;11.30;;;;;;;;;;6163642;28;20255;-73
2022/03/27 07:13:42;;;;;;;17.60;10.47;;;;;;;;;;6165907;28;20223;-74
2022/03/27 07:17:04;;;;;;;22.10;12.73;;;;;;;;;;6165262;28;20226;-74
2022/03/27 07:20:30;;;;;;;29.30;17.87;;;;;;;;;;6166348;28;20656;-74
2022/03/27 07:23:51;;;;;;;29.83;19.30;;;;;;;;;;6160647;28;20227;-73
2022/03/27 07:27:12;;;;;;;25.37;17.97;;;;;;;;;;6151966;28;20227;-73
2022/03/27 07:30:34;;;;;;;17.63;12.67;;;;;;;;;;6154008;28;20233;-73
2022/03/27 07:33:55;;;;;;;19.37;12.03;;;;;;;;;;6153569;28;20226;-73
2022/03/27 07:37:17;;;;;;;16.07;11.53;;;;;;;;;;6140934;28;20326;-74
2022/03/27 07:40:38;;;;;;;15.47;11.40;;;;;;;;;;6153917;28;20258;-73
2022/03/27 07:43:59;;;;;;;14.47;11.33;;;;;;;;;;6147883;28;20235;-73
2022/03/27 07:47:20;;;;;;;20.63;15.20;;;;;;;;;;6158626;28;20251;-73
2022/03/27 07:50:41;;;;;;;21.70;13.27;;;;;;;;;;6159124;28;20596;-72
2022/03/27 07:54:03;;;;;;;22.00;13.67;;;;;;;;;;6148581;28;20613;-73
2022/03/27 07:57:26;;;;;;;18.30;14.03;;;;;;;;;;6166804;28;20230;-73
2022/03/27 08:00:47;;;;;;;18.77;14.10;;;;;;;;;;6155656;28;20227;-74
2022/03/27 08:04:07;;;;;;;25.33;17.63;;;;;;;;;;6149217;28;20227;-73
2022/03/27 08:07:29;;;;;;;24.00;16.80;;;;;;;;;;6152026;28;20279;-72
2022/03/27 08:10:55;;;;;;;23.90;17.17;;;;;;;;;;6152712;28;20258;-74
2022/03/27 08:14:16;;;;;;;25.70;17.77;;;;;;;;;;6148630;28;20227;-74
2022/03/27 08:17:36;;;;;;;20.60;14.37;;;;;;;;;;6161663;28;20238;-73
2022/03/27 08:20:57;;;;;;;21.33;15.07;;;;;;;;;;6151871;28;20223;-73
2022/03/27 08:24:18;;;;;;;26.43;15.83;;;;;;;;;;6142097;28;20348;-74
2022/03/27 08:27:40;;;;;;;28.20;15.33;;;;;;;;;;6149107;28;20457;-74
2022/03/27 08:31:01;;;;;;;24.73;14.67;;;;;;;;;;6149850;28;20238;-74
2022/03/27 08:34:24;;;;;;;27.13;15.27;;;;;;;;;;6156779;28;20227;-74
2022/03/27 08:37:45;;;;;;;30.93;13.80;;;;;;;;;;6149957;28;20624;-72
2022/03/27 08:41:06;;;;;;;27.83;16.17;;;;;;;;;;6151618;28;20511;-74
2022/03/27 08:44:33;;;;;;;27.50;15.07;;;;;;;;;;6150334;28;20265;-74
2022/03/27 08:47:54;;;;;;;25.37;13.73;;;;;;;;;;6155912;28;20628;-74
2022/03/27 08:51:28;;;;;;;30.97;15.70;;;;;;;;;;6150435;28;20814;-74
2022/03/27 08:54:53;;;;;;;25.37;13.77;;;;;;;;;;6146776;28;20239;-74
2022/03/27 08:58:15;;;;;;;27.27;14.97;;;;;;;;;;6147779;28;20227;-73
2022/03/27 09:01:38;;;;;;;27.30;14.33;;;;;;;;;;6156244;28;20230;-74
2022/03/27 09:04:59;;;;;;;22.63;13.63;;;;;;;;;;6158333;28;20231;-74
2022/03/27 09:08:20;;;;;;;22.77;13.60;;;;;;;;;;6164741;28;20338;-75
2022/03/27 09:11:41;;;;;;;30.37;14.67;;;;;;;;;;6157537;28;20231;-74
2022/03/27 09:15:02;;;;;;;29.07;15.43;;;;;;;;;;6170430;28;20706;-73
2022/03/27 09:18:24;;;;;;;32.37;15.90;;;;;;;;;;6161789;28;20235;-74
2022/03/27 09:21:51;;;;;;;21.13;12.17;;;;;;;;;;6166960;28;20231;-74
2022/03/27 09:25:12;;;;;;;16.07;11.70;;;;;;;;;;6168816;28;20227;-75
2022/03/27 09:28:35;;;;;;;25.80;15.10;;;;;;;;;;6158265;28;20652;-74
2022/03/27 09:31:59;;;;;;;22.07;13.60;;;;;;;;;;6161627;28;20538;-73
2022/03/27 09:35:21;;;;;;;18.87;12.97;;;;;;;;;;6139103;28;20231;-75
2022/03/27 09:38:43;;;;;;;32.57;15.17;;;;;;;;;;6163950;28;20233;-73
2022/03/27 09:42:17;;;;;;;21.20;12.17;;;;;;;;;;6170776;28;20301;-73
2022/03/27 09:45:38;;;;;;;20.37;14.00;;;;;;;;;;6161847;28;20234;-74
2022/03/27 09:48:59;;;;;;;23.83;13.50;;;;;;;;;;6167365;28;20640;-74
2022/03/27 09:52:24;;;;;;;24.00;15.23;;;;;;;;;;6159480;28;20258;-75
2022/03/27 09:55:45;;;;;;;22.77;17.27;;;;;;;;;;6160056;28;20234;-75
2022/03/27 09:59:06;;;;;;;25.47;15.90;;;;;;;;;;6167145;28;20231;-73
2022/03/27 10:02:30;;;;;;;21.57;15.03;;;;;;;;;;6163481;28;20825;-75
2022/03/27 10:05:51;;;;;;;27.50;16.30;;;;;;;;;;6131674;28;20242;-75
2022/03/27 10:09:14;;;;;;;21.50;13.00;;;;;;;;;;6155891;28;20267;-74
2022/03/27 10:16:12;;;;;;;20.83;12.90;;;;;;;;;;6137823;23;20227;-77
2022/03/27 10:19:38;;;;;;;19.40;12.17;;;;;;;;;;6128748;28;20313;-77
2022/03/27 10:23:03;;;;;;;21.83;13.23;;;;;;;;;;6124133;28;20235;-74
2022/03/27 10:26:25;;;;;;;26.40;12.50;;;;;;;;;;6130943;28;20314;-77
2022/03/27 10:29:47;;;;;;;15.43;11.70;;;;;;;;;;6133824;28;20614;-73
2022/03/27 10:33:09;;;;;;;23.50;13.33;;;;;;;;;;6103489;29;20236;-74
2022/03/27 10:36:36;;;;;;;40.87;17.10;;;;;;;;;;6098328;29;20251;-73
2022/03/27 10:40:03;;;;;;;29.93;13.27;;;;;;;;;;6104427;29;20605;-71
2022/03/27 10:43:35;;;;;;;17.40;12.20;;;;;;;;;;6104512;29;20240;-73
2022/03/27 10:47:16;;;;;;;20.43;12.10;;;;;;;;;;6102924;29;20235;-72
2022/03/27 10:50:46;;;;;;;19.80;11.27;;;;;;;;;;6102277;29;20278;-72
2022/03/27 10:54:08;;;;;;;20.87;11.67;;;;;;;;;;6109415;29;20239;-73
2022/03/27 10:57:30;;;;;;;17.87;10.00;;;;;;;;;;6102623;29;20235;-72
2022/03/27 11:00:53;;;;;;;17.80;11.10;;;;;;;;;;6097518;29;20235;-73
2022/03/27 11:04:14;;;;;;;18.17;9.67;;;;;;;;;;6103407;29;20786;-72
2022/03/27 11:07:35;;;;;;;44.23;13.77;;;;;;;;;;6107014;29;20239;-73
2022/03/27 11:10:59;;;;;;;16.90;11.00;;;;;;;;;;6100292;29;20827;-67
2022/03/27 11:14:39;;;;;;;12.55;8.95;;;;;;;;;;6097774;29;20269;-70
2022/03/27 11:18:12;;;;;;;17.55;9.30;;;;;;;;;;6109698;29;20601;-70
2022/03/27 11:21:45;;;;;;;14.48;8.75;;;;;;;;;;6110094;29;20256;-72
2022/03/27 11:25:41;;;;;;;14.52;9.95;;;;;;;;;;6111687;29;20236;-71
2022/03/27 11:29:11;;;;;;;12.95;8.52;;;;;;;;;;6104721;29;20326;-69
2022/03/27 11:32:32;;;;;;;10.77;8.55;;;;;;;;;;6108893;29;20228;-70
2022/03/27 11:36:25;;;;;;;11.60;9.10;;;;;;;;;;6095878;29;20223;-73
2022/03/27 11:39:46;;;;;;;9.65;7.78;;;;;;;;;;6107948;29;20236;-70
2022/03/27 11:43:26;;;;;;;17.23;10.43;;;;;;;;;;6099997;29;20239;-73
2022/03/27 11:46:50;;;;;;;14.55;9.35;;;;;;;;;;6098864;29;20610;-72
2022/03/27 11:50:24;;;;;;;9.90;7.65;;;;;;;;;;6106978;29;20236;-70
2022/03/27 11:53:46;;;;;;;12.07;9.80;;;;;;;;;;6107931;29;20236;-71
2022/03/27 11:57:07;;;;;;;16.75;11.50;;;;;;;;;;6109568;29;20781;-69
2022/03/27 12:00:37;;;;;;;15.02;10.60;;;;;;;;;;6111541;29;20224;-74
2022/03/27 12:03:58;;;;;;;13.63;8.98;;;;;;;;;;6118901;29;20573;-73
2022/03/27 12:07:21;;;;;;;14.85;11.52;;;;;;;;;;6117911;29;20843;-73
2022/03/27 12:10:46;;;;;;;15.25;11.10;;;;;;;;;;6114045;29;20515;-74
2022/03/27 12:14:08;;;;;;;15.15;12.05;;;;;;;;;;6117321;29;20534;-72
2022/03/27 12:17:31;;;;;;;14.93;11.50;;;;;;;;;;6117825;29;20610;-73
2022/03/27 12:20:52;;;;;;;14.50;12.20;;;;;;;;;;6107618;29;20567;-69
2022/03/27 12:24:16;;;;;;;18.90;15.93;;;;;;;;;;6116531;29;20318;-68
2022/03/27 12:31:21;;;;;;;16.10;11.68;;;;;;;;;;6117229;29;20232;-69
2022/03/27 12:34:43;;;;;;;13.30;10.27;;;;;;;;;;6115631;29;20354;-70
2022/03/27 12:38:05;;;;;;;14.27;10.20;;;;;;;;;;6118182;29;20239;-69
2022/03/27 12:41:39;;;;;;;11.80;10.60;;;;;;;;;;6116527;29;21972;-68
2022/03/27 12:45:06;;;;;;;14.50;11.38;;;;;;;;;;6109164;29;20236;-70
2022/03/27 12:48:27;;;;;;;12.20;9.93;;;;;;;;;;6113316;29;20708;-70
2022/03/27 12:51:56;;;;;;;15.52;9.48;;;;;;;;;;6114481;29;20244;-69
2022/03/27 12:55:18;;;;;;;13.63;10.93;;;;;;;;;;6106324;29;20239;-69
2022/03/27 12:58:41;;;;;;;15.10;10.48;;;;;;;;;;6112937;29;20252;-69
2022/03/27 13:02:23;;;;;;;11.95;8.25;;;;;;;;;;6112780;29;20236;-70
2022/03/27 13:05:56;;;;;;;15.93;10.13;;;;;;;;;;6109956;29;20236;-68
2022/03/27 13:09:21;;;;;;;9.50;8.25;;;;;;;;;;6115756;29;20228;-69
2022/03/27 13:12:42;;;;;;;12.13;7.38;;;;;;;;;;6110704;29;20244;-69
2022/03/27 13:16:19;;;;;;;10.05;8.57;;;;;;;;;;6109650;29;20237;-69
2022/03/27 13:19:45;;;;;;;9.52;8.63;;;;;;;;;;6107898;29;20610;-69
2022/03/27 13:23:08;;;;;;;10.60;7.85;;;;;;;;;;6115787;29;20228;-68
2022/03/27 13:26:29;;;;;;;12.30;8.63;;;;;;;;;;6120630;29;20273;-67
2022/03/27 13:29:49;;;;;;;10.68;8.05;;;;;;;;;;6112416;29;20244;-69
2022/03/27 13:33:10;;;;;;;11.48;7.88;;;;;;;;;;6114206;29;20540;-68
2022/03/27 13:36:33;;;;;;;10.77;6.65;;;;;;;;;;6117116;29;20330;-68
2022/03/27 13:39:54;;;;;;;11.38;7.68;;;;;;;;;;6121193;29;20232;-68
2022/03/27 13:43:13;;;;;;;10.50;7.00;;;;;;;;;;6117820;29;20271;-69
2022/03/27 13:46:34;;;;;;;8.02;7.00;;;;;;;;;;6118968;29;20348;-69
2022/03/27 13:49:55;;;;;;;9.40;6.88;;;;;;;;;;6115819;29;20263;-68
2022/03/27 13:53:17;;;;;;;8.95;6.88;;;;;;;;;;6112736;29;20236;-69
2022/03/27 13:56:40;;;;;;;10.00;6.70;;;;;;;;;;6116520;29;20509;-69
2022/03/27 14:00:01;;;;;;;10.00;6.03;;;;;;;;;;6117212;29;20354;-68
2022/03/27 14:03:23;;;;;;;7.32;5.43;;;;;;;;;;6114521;29;20617;-69
2022/03/27 14:06:45;;;;;;;9.75;7.20;;;;;;;;;;6114001;29;20232;-70
2022/03/27 14:10:08;;;;;;;9.70;8.00;;;;;;;;;;6118518;29;20232;-68
2022/03/27 14:13:28;;;;;;;11.98;8.82;;;;;;;;;;6111890;29;20267;-70
2022/03/27 14:16:52;;;;;;;13.40;8.80;;;;;;;;;;6120021;29;20255;-69
2022/03/27 14:20:13;;;;;;;11.68;8.45;;;;;;;;;;6116515;29;20224;-69
2022/03/27 14:23:34;;;;;;;13.55;9.38;;;;;;;;;;6111369;29;20937;-69
2022/03/27 14:26:56;;;;;;;14.05;10.20;;;;;;;;;;6104031;29;20228;-68
2022/03/27 14:30:17;;;;;;;12.65;9.50;;;;;;;;;;6113181;29;20323;-69
2022/03/27 14:33:38;;;;;;;14.23;8.50;;;;;;;;;;6117170;29;20246;-68
2022/03/27 14:36:59;;;;;;;10.63;8.27;;;;;;;;;;6116303;29;20310;-68
2022/03/27 14:40:20;;;;;;;14.95;8.88;;;;;;;;;;6108746;29;20251;-69
2022/03/27 14:43:42;;;;;;;11.15;7.32;;;;;;;;;;6115034;29;20239;-69
2022/03/27 14:47:03;;;;;;;11.15;8.38;;;;;;;;;;6119253;29;20251;-68
2022/03/27 14:50:24;;;;;;;14.88;9.60;;;;;;;;;;6118180;29;20540;-70
2022/03/27 14:57:23;;;;;;;8.35;6.60;;;;;;;;;;6121116;29;20236;-70
2022/03/27 15:00:46;;;;;;;8.93;6.93;;;;;;;;;;6097438;29;20227;-70
2022/03/27 15:04:06;;;;;;;10.52;7.88;;;;;;;;;;6104028;29;20236;-70
2022/03/27 15:07:27;;;;;;;8.57;6.50;;;;;;;;;;6119072;29;20304;-70
2022/03/27 15:10:48;;;;;;;9.35;6.05;;;;;;;;;;6120178;29;20236;-70
2022/03/27 15:14:09;;;;;;;11.18;6.63;;;;;;;;;;6118481;29;20582;-71
2022/03/27 15:17:32;;;;;;;9.13;7.15;;;;;;;;;;6122240;29;20228;-70
2022/03/27 15:20:52;;;;;;;8.80;6.00;;;;;;;;;;6115807;29;20331;-70
2022/03/27 15:24:13;;;;;;;10.57;7.80;;;;;;;;;;6109674;29;20228;-72
2022/03/27 15:27:35;;;;;;;10.70;7.20;;;;;;;;;;6121126;29;20239;-73
2022/03/27 15:30:58;;;;;;;15.95;8.20;;;;;;;;;;6107636;29;20678;-71
2022/03/27 15:34:21;;;;;;;10.85;7.65;;;;;;;;;;6115957;29;20350;-68
2022/03/27 15:37:43;;;;;;;10.50;7.75;;;;;;;;;;6119316;29;20239;-71
2022/03/27 15:41:04;;;;;;;11.77;7.25;;;;;;;;;;6112754;29;20243;-72
2022/03/27 15:44:25;;;;;;;23.08;7.55;;;;;;;;;;6103480;29;20228;-72
2022/03/27 15:47:49;;;;;;;14.48;9.38;;;;;;;;;;6119104;29;20231;-71
2022/03/27 15:51:11;;;;;;;16.08;7.43;;;;;;;;;;6121725;29;20271;-72
2022/03/27 15:54:32;;;;;;;13.80;6.97;;;;;;;;;;6100912;29;20236;-73
2022/03/27 15:57:53;;;;;;;15.63;8.77;;;;;;;;;;6113496;29;20228;-71
2022/03/27 16:01:15;;;;;;;14.55;8.27;;;;;;;;;;6116473;29;20228;-69
2022/03/27 16:04:35;;;;;;;11.50;6.90;;;;;;;;;;6107860;29;20232;-68
2022/03/27 16:07:58;;;;;;;14.55;7.35;;;;;;;;;;6104122;29;20236;-70
2022/03/27 16:11:19;;;;;;;15.20;6.75;;;;;;;;;;6100731;29;20629;-72
2022/03/27 16:14:40;;;;;;;12.98;6.85;;;;;;;;;;6109720;29;20231;-72
2022/03/27 16:18:01;;;;;;;12.63;7.32;;;;;;;;;;6116507;29;20618;-70
2022/03/27 16:21:22;;;;;;;15.73;8.20;;;;;;;;;;6112635;29;20236;-72
2022/03/27 16:24:44;;;;;;;13.77;6.60;;;;;;;;;;6114849;29;20335;-71
2022/03/27 16:28:08;;;;;;;14.02;7.30;;;;;;;;;;6114928;29;20231;-71
2022/03/27 16:31:29;;;;;;;15.93;7.53;;;;;;;;;;6115270;29;20228;-73
2022/03/27 16:34:50;;;;;;;25.60;8.90;;;;;;;;;;6112394;29;20308;-71
2022/03/27 16:38:11;;;;;;;15.68;8.32;;;;;;;;;;6119384;29;20236;-72
2022/03/27 16:41:33;;;;;;;14.52;7.80;;;;;;;;;;6118384;29;20280;-72
2022/03/27 16:44:54;;;;;;;17.13;8.57;;;;;;;;;;6115024;29;20240;-71
2022/03/27 16:48:15;;;;;;;16.17;8.07;;;;;;;;;;6123580;29;20314;-74
2022/03/27 16:51:36;;;;;;;12.80;7.15;;;;;;;;;;6119829;29;20231;-71
2022/03/27 16:54:57;;;;;;;10.77;6.00;;;;;;;;;;6116691;29;20239;-70
2022/03/27 16:58:19;;;;;;;18.00;6.53;;;;;;;;;;6116610;29;20373;-71
2022/03/27 17:01:40;;;;;;;18.65;9.30;;;;;;;;;;6116048;29;20228;-71
2022/03/27 17:05:01;;;;;;;14.60;6.70;;;;;;;;;;6116960;29;20234;-71
2022/03/27 17:08:22;;;;;;;14.00;5.13;;;;;;;;;;6111738;29;20239;-71
2022/03/27 17:11:42;;;;;;;11.25;5.43;;;;;;;;;;6114221;29;20709;-72
2022/03/27 17:15:07;;;;;;;13.60;5.63;;;;;;;;;;6113654;29;20537;-71
2022/03/27 17:18:28;;;;;;;9.93;4.53;;;;;;;;;;6113653;29;20240;-70
2022/03/27 17:21:49;;;;;;;10.70;4.70;;;;;;;;;;6114191;29;20251;-74
2022/03/27 17:25:10;;;;;;;10.75;4.32;;;;;;;;;;6103307;29;20227;-71
2022/03/27 17:28:31;;;;;;;11.25;4.80;;;;;;;;;;6111057;29;20321;-70
2022/03/27 17:31:54;;;;;;;12.43;5.70;;;;;;;;;;6112613;29;20633;-76
2022/03/27 17:35:15;;;;;;;11.93;4.90;;;;;;;;;;6103327;29;20247;-76
2022/03/27 17:38:36;;;;;;;10.07;4.40;;;;;;;;;;6100992;29;20227;-72
2022/03/27 17:41:57;;;;;;;8.83;3.77;;;;;;;;;;6118331;29;20231;-72
2022/03/27 17:45:19;;;;;;;10.80;4.83;;;;;;;;;;6111109;29;20568;-74
2022/03/27 17:48:41;;;;;;;10.87;5.10;;;;;;;;;;6101966;29;20244;-73
2022/03/27 17:52:02;;;;;;;9.97;4.87;;;;;;;;;;6107860;29;20239;-78
2022/03/27 17:55:23;;;;;;;12.03;5.90;;;;;;;;;;6086647;29;20232;-78
2022/03/27 17:58:45;;;;;;;8.17;4.87;;;;;;;;;;6109708;29;20235;-75
2022/03/27 18:02:06;;;;;;;14.63;6.47;;;;;;;;;;6112539;29;20228;-75
2022/03/27 18:05:28;;;;;;;8.73;5.20;;;;;;;;;;6113082;29;20780;-76
2022/03/27 18:08:51;;;;;;;11.33;5.43;;;;;;;;;;6116450;29;20266;-74
2022/03/27 18:12:12;;;;;;;12.40;5.87;;;;;;;;;;6117044;29;20244;-77
2022/03/27 18:15:33;;;;;;;14.93;5.83;;;;;;;;;;6112595;29;20240;-75
2022/03/27 18:18:53;;;;;;;16.63;5.77;;;;;;;;;;6106686;29;20814;-73
2022/03/27 18:22:16;;;;;;;28.07;7.20;;;;;;;;;;6104908;29;20318;-77
2022/03/27 18:25:38;;;;;;;12.50;5.00;;;;;;;;;;6085687;29;20235;-73
2022/03/27 18:28:59;;;;;;;14.67;5.03;;;;;;;;;;6086534;29;20699;-73
2022/03/27 18:32:21;;;;;;;11.47;5.87;;;;;;;;;;6091756;29;20319;-75
2022/03/27 18:35:42;;;;;;;15.23;6.43;;;;;;;;;;6094909;29;20983;-74
2022/03/27 18:39:04;;;;;;;14.93;5.00;;;;;;;;;;6092044;29;20994;-76
2022/03/27 18:42:25;;;;;;;12.73;5.87;;;;;;;;;;6101734;29;20232;-76
2022/03/27 18:45:46;;;;;;;16.57;5.57;;;;;;;;;;6094215;29;20319;-75
2022/03/27 18:49:07;;;;;;;7.60;4.33;;;;;;;;;;6104354;28;20827;-75
2022/03/27 18:52:28;;;;;;;12.53;6.07;;;;;;;;;;6103062;29;20240;-75
2022/03/27 18:55:50;;;;;;;8.93;3.70;;;;;;;;;;6109861;29;20530;-77
2022/03/27 18:59:11;;;;;;;17.27;6.57;;;;;;;;;;6113570;29;20513;-75
2022/03/27 19:02:32;;;;;;;12.83;4.83;;;;;;;;;;6105230;29;20227;-75
2022/03/27 19:05:53;;;;;;;7.97;4.40;;;;;;;;;;6114187;29;20264;-74
2022/03/27 19:09:14;;;;;;;12.50;4.40;;;;;;;;;;6116488;29;20235;-74
2022/03/27 19:12:36;;;;;;;5.63;3.70;;;;;;;;;;6116569;29;20263;-75
2022/03/27 19:15:57;;;;;;;5.50;3.37;;;;;;;;;;6113390;29;20231;-74
2022/03/27 19:19:35;;;;;;;5.67;3.23;;;;;;;;;;6113205;29;20235;-74
2022/03/27 19:22:59;;;;;;;4.97;3.17;;;;;;;;;;6116991;29;20244;-75
2022/03/27 19:26:20;;;;;;;5.27;3.57;;;;;;;;;;6116098;29;20947;-76
2022/03/27 19:29:42;;;;;;;4.83;3.50;;;;;;;;;;6093936;29;20235;-75
2022/03/27 19:33:03;;;;;;;7.83;6.37;;;;;;;;;;6110153;29;20536;-75
2022/03/27 19:36:24;;;;;;;4.70;3.57;;;;;;;;;;6107593;29;20239;-75
2022/03/27 19:39:46;;;;;;;5.33;3.47;;;;;;;;;;6114556;29;20696;-75
2022/03/27 19:43:07;;;;;;;8.63;4.57;;;;;;;;;;6111544;29;20339;-75
2022/03/27 19:46:31;;;;;;;4.27;3.90;;;;;;;;;;6109672;29;20240;-76
2022/03/27 19:49:52;;;;;;;5.83;4.70;;;;;;;;;;6116628;29;20232;-76
2022/03/27 19:53:15;;;;;;;5.10;4.70;;;;;;;;;;6116254;29;20603;-76
2022/03/27 19:56:35;;;;;;;6.37;5.87;;;;;;;;;;6114509;29;20236;-74
2022/03/27 19:59:56;;;;;;;6.20;5.80;;;;;;;;;;6112815;29;20629;-74
2022/03/27 20:03:18;;;;;;;6.47;6.07;;;;;;;;;;6110091;29;20236;-74
2022/03/27 20:06:39;;;;;;;7.93;7.33;;;;;;;;;;6114311;29;20740;-74
2022/03/27 20:10:00;;;;;;;9.30;8.60;;;;;;;;;;6105416;29;20231;-74
2022/03/27 20:13:22;;;;;;;10.07;9.37;;;;;;;;;;6114438;29;20232;-74
2022/03/27 20:16:43;;;;;;;10.70;9.90;;;;;;;;;;6107791;29;20705;-75
2022/03/27 20:20:07;;;;;;;10.83;9.93;;;;;;;;;;6112443;29;20239;-75
2022/03/27 20:23:28;;;;;;;13.27;12.17;;;;;;;;;;6109767;29;20593;-75
2022/03/27 20:26:49;;;;;;;11.77;10.77;;;;;;;;;;6113222;29;20235;-75
2022/03/27 20:30:11;;;;;;;11.33;10.43;;;;;;;;;;6111610;29;20232;-73
2022/03/27 20:33:32;;;;;;;8.63;7.93;;;;;;;;;;6111909;29;20236;-75
2022/03/27 20:36:54;;;;;;;8.73;7.97;;;;;;;;;;6115157;29;20721;-74
2022/03/27 20:40:15;;;;;;;8.53;7.83;;;;;;;;;;6115473;29;20232;-74
2022/03/27 20:43:36;;;;;;;9.43;8.63;;;;;;;;;;6114603;29;20228;-74
2022/03/27 20:46:58;;;;;;;10.40;9.57;;;;;;;;;;6112543;29;20239;-74
2022/03/27 20:50:19;;;;;;;10.80;9.90;;;;;;;;;;6115644;29;20239;-73
2022/03/27 20:53:42;;;;;;;11.50;10.60;;;;;;;;;;6115098;29;20516;-74